Terminal Aerodrome Forecast
Issued by NWS Wilmington, NC

Home | Current Version | Previous Version | Text Only | Print | Product List | Glossary On
Versions: 1 2 3 4 5 6 7 8 9 10 11 12
000
FTUS42 KILM 132320
TAFMYR
TAF
KMYR 132320Z 1400/1424 21005KT P6SM SKC
     FM140500 23010G15KT P6SM FEW120 SCT250 WS015/25040KT
      TEMPO 1406/1410 23012G22KT
     FM141500 26009KT P6SM FEW150 SCT250=

USA.gov is the U.S. government's official web portal to all federal, state and local government web resources and services.